CheckWX is a tool to help pilots better visualize weather data.  It is not intended as a substitute for an official pre-flight weather briefing.

20:14:06 UTC

KHRI METAR
Hermiston Municipal Airport
Hermiston, Oregon, USA
Current

21 mins ago

KHRI 231953Z AUTO 24020G27KT 10SM CLR 23/11 A3007 RMK AO2 PK WND 23030/1917 SLP178 T02330106
Observed
Apr-23 @ 19:53 UTC
Wind
  • 240° at 20 KTS
  • Gusting to 27 KTS
Visibility
10 SM
Flight Rules
VFR
Cloud Levels
  • Clear skies
Temperature
23°C / 73°F
Dewpoint
11°C / 52°F
Humidity
47%
Altimeter
30.07" Hg
Pressure
1018.32 hPa
Previous

1 hour ago

KHRI 231853Z AUTO 24016G20KT 10SM FEW120 23/11 A3008 RMK AO2 SLP180 T02330111
Observed
Apr-23 @ 18:53 UTC
Wind
  • 240° at 16 KTS
  • Gusting to 20 KTS
Visibility
10 SM
Flight Rules
VFR
Cloud Levels
  • Few at 12,000' AGL
Temperature
23°C / 73°F
Dewpoint
11°C / 52°F
Humidity
47%
Altimeter
30.08" Hg
Pressure
1018.62 hPa
Previous

2 hours ago

KHRI 231753Z AUTO 24015KT 10SM CLR 21/11 A3009 RMK AO2 SLP188 T02110111 10217 20144 58008
Observed
Apr-23 @ 17:53 UTC
Wind
  • 240° at 15 KTS
Visibility
10 SM
Flight Rules
VFR
Cloud Levels
  • Clear skies
Temperature
21°C / 70°F
Dewpoint
11°C / 52°F
Humidity
53%
Altimeter
30.09" Hg
Pressure
1018.92 hPa